createdAt,value
2019-03-29T15:02:43.271Z,58.10
2019-03-29T15:05:13.355Z,57.10
2019-03-29T15:07:44.193Z,57.60
2019-03-29T15:10:26.818Z,57.50
2019-03-29T15:12:57.959Z,56.70
2019-03-29T15:15:28.890Z,57.50
2019-03-29T15:18:00.227Z,56.90
2019-03-29T15:20:31.138Z,56.90
2019-03-29T15:23:01.850Z,56.00
2019-03-29T15:25:33.266Z,57.20
2019-03-29T15:28:04.521Z,55.90
2019-03-29T15:30:35.117Z,55.30
2019-03-29T15:33:05.672Z,55.20
2019-03-29T15:35:36.783Z,55.70
2019-03-29T15:38:08.013Z,56.60
2019-03-29T15:40:38.689Z,56.40
2019-03-29T15:43:10.247Z,56.70
2019-03-29T15:45:40.957Z,56.70
2019-03-29T15:48:11.955Z,56.60
2019-03-29T15:50:43.372Z,57.10
2019-03-29T15:53:14.418Z,58.00
2019-03-29T15:55:45.439Z,57.70
2019-03-29T15:58:16.491Z,58.10
2019-03-29T16:00:46.752Z,56.90
2019-03-29T16:03:17.030Z,56.90
2019-03-29T16:05:48.567Z,57.10
2019-03-29T16:08:19.336Z,57.80
2019-03-29T16:10:49.948Z,58.40
2019-03-29T16:13:21.298Z,59.00
2019-03-29T16:15:52.342Z,58.70
2019-03-29T16:18:22.834Z,58.50
2019-03-29T16:20:52.759Z,59.10
2019-03-29T16:23:23.724Z,59.40
2019-03-29T16:25:54.869Z,60.30
2019-03-29T16:28:25.771Z,61.10
2019-03-29T16:30:56.338Z,61.00
2019-03-29T16:33:27.605Z,61.80
2019-03-29T16:35:58.237Z,62.10
2019-03-29T16:38:29.076Z,62.20
2019-03-29T16:40:59.679Z,62.80
2019-03-29T16:43:31.570Z,63.30
2019-03-29T16:46:02.600Z,63.40
2019-03-29T16:48:33.120Z,63.50
2019-03-29T16:51:03.730Z,63.90
2019-03-29T16:53:34.048Z,64.70
2019-03-29T16:56:04.656Z,65.00
2019-03-29T16:58:36.148Z,65.20
2019-03-29T17:01:08.263Z,66.40
2019-03-29T17:03:39.527Z,66.30
2019-03-29T17:06:10.210Z,67.10
2019-03-29T17:08:40.805Z,67.70
2019-03-29T17:11:11.940Z,67.80
2019-03-29T17:13:43.309Z,68.20
2019-03-29T17:16:14.544Z,68.60
2019-03-29T17:18:45.752Z,68.50
2019-03-29T17:21:16.748Z,68.70
2019-03-29T17:23:47.373Z,69.10
2019-03-29T17:26:17.312Z,69.40
2019-03-29T17:28:48.298Z,70.00
2019-03-29T17:31:19.213Z,70.30
2019-03-29T17:33:49.434Z,71.20
2019-03-29T17:36:20.731Z,72.40
2019-03-29T17:38:51.018Z,72.40
2019-03-29T17:41:22.969Z,72.20
2019-03-29T17:43:53.239Z,72.90
2019-03-29T17:46:24.562Z,73.10
2019-03-29T17:48:55.619Z,73.60
2019-03-29T17:51:26.280Z,73.90
2019-03-29T17:53:57.297Z,74.80
2019-03-29T17:56:28.352Z,75.20
2019-03-29T17:58:59.091Z,75.70
2019-03-29T18:01:29.701Z,76.30
2019-03-29T18:04:00.440Z,76.60
2019-03-29T18:06:31.075Z,76.70
2019-03-29T18:09:01.659Z,77.20
2019-03-29T18:11:32.637Z,77.50
2019-03-29T18:14:02.778Z,78.00
2019-03-29T18:16:33.493Z,78.10
2019-03-29T18:19:06.906Z,78.90
2019-03-29T18:21:38.340Z,78.20
2019-03-29T18:24:08.208Z,78.50
2019-03-29T18:26:39.615Z,79.30
2019-03-29T18:29:10.656Z,79.70
2019-03-29T18:31:42.080Z,80.20
2019-03-29T18:34:13.041Z,80.50
2019-03-29T18:36:47.757Z,80.70
2019-03-29T18:39:18.932Z,81.00
2019-03-29T18:41:50.661Z,81.30
2019-03-29T18:44:20.914Z,81.50
2019-03-29T18:46:52.073Z,81.70
2019-03-29T18:49:23.132Z,81.90
2019-03-29T18:51:54.113Z,82.00
2019-03-29T18:54:24.747Z,81.80
2019-03-29T18:56:55.735Z,81.00
2019-03-29T18:59:26.816Z,81.20
2019-03-29T19:01:57.927Z,81.50
2019-03-29T19:04:28.424Z,81.90
2019-03-29T19:06:59.056Z,82.00
2019-03-29T19:09:31.647Z,82.10
2019-03-29T19:12:02.435Z,82.10
2019-03-29T19:14:33.486Z,82.70
2019-03-29T19:17:03.436Z,83.00
2019-03-29T19:19:34.476Z,82.80
2019-03-29T19:22:05.478Z,82.30
2019-03-29T19:24:36.507Z,82.30
2019-03-29T19:27:07.869Z,82.40
2019-03-29T19:29:38.920Z,83.20
2019-03-29T19:32:10.140Z,82.40
2019-03-29T19:34:40.744Z,82.60
2019-03-29T19:37:13.885Z,83.00
2019-03-29T19:39:45.172Z,83.40
2019-03-29T19:42:16.858Z,83.80
2019-03-29T19:44:48.268Z,84.20
2019-03-29T19:47:19.669Z,83.60
2019-03-29T19:49:50.408Z,83.60
2019-03-29T19:52:21.404Z,83.50
2019-03-29T19:54:53.110Z,83.00
2019-03-29T19:57:23.657Z,82.40
2019-03-29T19:59:54.683Z,81.00
2019-03-29T20:02:25.374Z,80.60
2019-03-29T20:04:56.011Z,80.60
2019-03-29T20:07:27.183Z,81.30
2019-03-29T20:09:59.098Z,81.90
2019-03-29T20:12:31.432Z,81.60
2019-03-29T20:15:02.567Z,82.10
2019-03-29T20:17:33.284Z,82.70
2019-03-29T20:20:03.548Z,81.60
2019-03-29T20:22:34.568Z,80.10
2019-03-29T20:25:05.318Z,79.80
2019-03-29T20:27:36.337Z,78.50
2019-03-29T20:30:07.497Z,77.50
2019-03-29T20:32:38.930Z,77.20
2019-03-29T20:35:09.936Z,77.00
2019-03-29T20:37:41.291Z,76.70
2019-03-29T20:40:13.350Z,77.40
2019-03-29T20:42:44.418Z,77.60
2019-03-29T20:45:16.015Z,77.50
2019-03-29T20:47:47.049Z,77.70
2019-03-29T20:50:18.569Z,78.40
2019-03-29T20:52:50.091Z,77.80
2019-03-29T20:55:20.586Z,78.00
2019-03-29T20:57:53.848Z,78.30
